sensor_id;sensor_type;location;lat;lon;timestamp;pressure;altitude;pressure_sealevel;temperature;humidity
37298;BME280;30517;51.932;4.278;2023-02-03T00:00:40;102545.31;;;10.36;68.21
37298;BME280;30517;51.932;4.278;2023-02-03T00:03:21;102575.78;;;10.58;67.98
37298;BME280;30517;51.932;4.278;2023-02-03T00:06:02;102531.75;;;10.23;68.57
37298;BME280;30517;51.932;4.278;2023-02-03T00:08:43;102546.59;;;10.19;68.17
37298;BME280;30517;51.932;4.278;2023-02-03T00:11:25;102606.56;;;10.58;68.60
37298;BME280;30517;51.932;4.278;2023-02-03T00:14:06;102575.19;;;10.35;68.20
37298;BME280;30517;51.932;4.278;2023-02-03T00:16:47;102603.03;;;10.57;68.18
37298;BME280;30517;51.932;4.278;2023-02-03T00:19:28;102547.81;;;10.30;68.29
37298;BME280;30517;51.932;4.278;2023-02-03T00:22:08;102556.75;;;10.35;68.41
37298;BME280;30517;51.932;4.278;2023-02-03T00:24:49;102529.09;;;10.23;68.41
37298;BME280;30517;51.932;4.278;2023-02-03T00:27:31;102574.75;;;10.52;68.20
37298;BME280;30517;51.932;4.278;2023-02-03T00:30:12;102592.47;;;10.56;68.54
37298;BME280;30517;51.932;4.278;2023-02-03T00:32:53;102591.38;;;10.48;68.10
37298;BME280;30517;51.932;4.278;2023-02-03T00:35:37;102578.03;;;10.43;68.11
37298;BME280;30517;51.932;4.278;2023-02-03T00:38:18;102525.16;;;10.05;68.16
37298;BME280;30517;51.932;4.278;2023-02-03T00:40:59;102574.34;;;10.36;68.13
37298;BME280;30517;51.932;4.278;2023-02-03T00:43:39;102550.91;;;10.15;68.64
37298;BME280;30517;51.932;4.278;2023-02-03T00:46:20;102622.38;;;10.56;68.52
37298;BME280;30517;51.932;4.278;2023-02-03T00:49:02;102612.69;;;10.57;68.38
37298;BME280;30517;51.932;4.278;2023-02-03T00:51:43;102625.00;;;10.56;67.96
37298;BME280;30517;51.932;4.278;2023-02-03T00:54:24;102610.06;;;10.57;68.35
37298;BME280;30517;51.932;4.278;2023-02-03T00:57:05;102579.81;;;10.44;68.35
37298;BME280;30517;51.932;4.278;2023-02-03T00:59:45;102574.25;;;10.32;68.25
37298;BME280;30517;51.932;4.278;2023-02-03T01:02:26;102535.00;;;10.12;68.20
37298;BME280;30517;51.932;4.278;2023-02-03T01:05:07;102598.63;;;10.56;68.39
37298;BME280;30517;51.932;4.278;2023-02-03T01:07:48;102611.69;;;10.52;68.27
37298;BME280;30517;51.932;4.278;2023-02-03T01:10:29;102630.28;;;10.56;68.05
37298;BME280;30517;51.932;4.278;2023-02-03T01:13:10;102586.91;;;10.45;68.18
37298;BME280;30517;51.932;4.278;2023-02-03T01:15:50;102555.66;;;10.27;67.98
37298;BME280;30517;51.932;4.278;2023-02-03T01:18:31;102607.38;;;10.55;68.38
37298;BME280;30517;51.932;4.278;2023-02-03T01:21:15;102532.47;;;10.15;68.29
37298;BME280;30517;51.932;4.278;2023-02-03T01:23:57;102588.06;;;10.56;68.32
37298;BME280;30517;51.932;4.278;2023-02-03T01:26:40;102569.06;;;10.36;68.30
37298;BME280;30517;51.932;4.278;2023-02-03T01:29:21;102542.53;;;10.30;68.59
37298;BME280;30517;51.932;4.278;2023-02-03T01:32:02;102532.53;;;10.18;67.95
37298;BME280;30517;51.932;4.278;2023-02-03T01:34:43;102587.19;;;10.57;68.29
37298;BME280;30517;51.932;4.278;2023-02-03T01:37:24;102565.19;;;10.57;68.14
37298;BME280;30517;51.932;4.278;2023-02-03T01:40:05;102484.06;;;10.13;68.10
37298;BME280;30517;51.932;4.278;2023-02-03T01:42:46;102518.84;;;10.32;68.47
37298;BME280;30517;51.932;4.278;2023-02-03T01:45:27;102577.50;;;10.56;68.17
37298;BME280;30517;51.932;4.278;2023-02-03T01:48:08;102570.34;;;10.52;68.15
37298;BME280;30517;51.932;4.278;2023-02-03T01:50:49;102588.97;;;10.58;68.14
37298;BME280;30517;51.932;4.278;2023-02-03T01:53:30;102574.00;;;10.57;68.30
37298;BME280;30517;51.932;4.278;2023-02-03T01:56:12;102557.16;;;10.51;68.05
37298;BME280;30517;51.932;4.278;2023-02-03T01:58:53;102567.72;;;10.52;68.31
37298;BME280;30517;51.932;4.278;2023-02-03T02:01:34;102503.63;;;10.23;68.62
37298;BME280;30517;51.932;4.278;2023-02-03T02:04:16;102521.59;;;10.36;68.19
37298;BME280;30517;51.932;4.278;2023-02-03T02:06:58;102522.59;;;10.41;68.05
37298;BME280;30517;51.932;4.278;2023-02-03T02:09:38;102563.53;;;10.60;68.26
37298;BME280;30517;51.932;4.278;2023-02-03T02:12:19;102562.63;;;10.60;67.92
37298;BME280;30517;51.932;4.278;2023-02-03T02:15:01;102527.91;;;10.43;68.16
37298;BME280;30517;51.932;4.278;2023-02-03T02:21:03;102548.56;;;10.61;68.27
37298;BME280;30517;51.932;4.278;2023-02-03T02:24:15;102557.34;;;10.60;67.96
37298;BME280;30517;51.932;4.278;2023-02-03T02:27:34;102376.22;;;9.23;68.55
37298;BME280;30517;51.932;4.278;2023-02-03T02:31:05;102563.53;;;10.60;68.17
37298;BME280;30517;51.932;4.278;2023-02-03T02:33:48;102539.44;;;10.47;68.22
37298;BME280;30517;51.932;4.278;2023-02-03T02:36:32;102570.59;;;10.61;68.38
37298;BME280;30517;51.932;4.278;2023-02-03T02:39:37;102540.31;;;10.47;68.34
37298;BME280;30517;51.932;4.278;2023-02-03T02:42:30;102570.59;;;10.61;68.80
37298;BME280;30517;51.932;4.278;2023-02-03T02:45:14;102568.88;;;10.63;68.27
37298;BME280;30517;51.932;4.278;2023-02-03T02:48:28;102528.94;;;10.50;67.87
37298;BME280;30517;51.932;4.278;2023-02-03T02:51:13;102515.63;;;10.44;68.19
37298;BME280;30517;51.932;4.278;2023-02-03T02:53:57;102542.34;;;10.57;68.03
37298;BME280;30517;51.932;4.278;2023-02-03T02:56:40;102545.84;;;10.56;68.12
37298;BME280;30517;51.932;4.278;2023-02-03T02:59:23;102558.31;;;10.63;68.29
37298;BME280;30517;51.932;4.278;2023-02-03T03:02:03;102510.16;;;10.36;68.29
37298;BME280;30517;51.932;4.278;2023-02-03T03:04:46;102548.63;;;10.62;68.23
37298;BME280;30517;51.932;4.278;2023-02-03T03:07:34;102558.31;;;10.62;68.12
37298;BME280;30517;51.932;4.278;2023-02-03T03:10:19;102513.88;;;10.44;68.18
37298;BME280;30517;51.932;4.278;2023-02-03T03:13:06;102524.56;;;10.50;68.68
37298;BME280;30517;51.932;4.278;2023-02-03T03:15:50;102541.59;;;10.63;68.25
37298;BME280;30517;51.932;4.278;2023-02-03T03:18:37;102521.09;;;10.51;67.90
37298;BME280;30517;51.932;4.278;2023-02-03T03:21:25;102524.81;;;10.59;68.55
37298;BME280;30517;51.932;4.278;2023-02-03T03:24:09;102512.25;;;10.49;68.05
37298;BME280;30517;51.932;4.278;2023-02-03T03:26:58;102514.19;;;10.56;68.55
37298;BME280;30517;51.932;4.278;2023-02-03T03:29:52;102548.63;;;10.62;67.88
37298;BME280;30517;51.932;4.278;2023-02-03T03:32:34;102526.25;;;10.47;68.14
37298;BME280;30517;51.932;4.278;2023-02-03T03:35:15;102513.84;;;10.43;68.29
37298;BME280;30517;51.932;4.278;2023-02-03T03:38:06;102554.66;;;10.58;68.47
37298;BME280;30517;51.932;4.278;2023-02-03T03:41:00;102570.63;;;10.63;68.25
37298;BME280;30517;51.932;4.278;2023-02-03T03:43:43;102562.78;;;10.66;68.35
37298;BME280;30517;51.932;4.278;2023-02-03T03:46:27;102562.84;;;10.69;68.01
37298;BME280;30517;51.932;4.278;2023-02-03T03:49:11;102568.97;;;10.67;68.14
37298;BME280;30517;51.932;4.278;2023-02-03T03:51:58;102553.97;;;10.64;68.21
37298;BME280;30517;51.932;4.278;2023-02-03T03:54:41;102566.28;;;10.65;68.23
37298;BME280;30517;51.932;4.278;2023-02-03T03:57:27;102563.44;;;10.57;68.63
37298;BME280;30517;51.932;4.278;2023-02-03T04:00:12;102551.31;;;10.64;68.23
37298;BME280;30517;51.932;4.278;2023-02-03T04:02:55;102558.31;;;10.63;68.11
37298;BME280;30517;51.932;4.278;2023-02-03T04:05:40;102537.94;;;10.58;67.79
37298;BME280;30517;51.932;4.278;2023-02-03T04:08:21;102501.69;;;10.49;68.31
37298;BME280;30517;51.932;4.278;2023-02-03T04:11:01;102539.00;;;10.65;68.49
37298;BME280;30517;51.932;4.278;2023-02-03T04:13:42;102533.63;;;10.60;68.31
37298;BME280;30517;51.932;4.278;2023-02-03T04:16:23;102536.03;;;10.51;68.31
37298;BME280;30517;51.932;4.278;2023-02-03T04:19:04;102570.69;;;10.65;68.19
37298;BME280;30517;51.932;4.278;2023-02-03T04:21:47;102523.47;;;10.42;68.27
37298;BME280;30517;51.932;4.278;2023-02-03T04:24:28;102554.66;;;10.58;67.90
37298;BME280;30517;51.932;4.278;2023-02-03T04:27:09;102516.50;;;10.44;68.26
37298;BME280;30517;51.932;4.278;2023-02-03T04:29:50;102560.13;;;10.65;68.43
37298;BME280;30517;51.932;4.278;2023-02-03T04:32:31;102582.19;;;10.67;68.12
37298;BME280;30517;51.932;4.278;2023-02-03T04:35:18;102525.47;;;10.51;68.06
37298;BME280;30517;51.932;4.278;2023-02-03T04:37:59;102462.81;;;10.07;68.15
37298;BME280;30517;51.932;4.278;2023-02-03T04:40:39;102536.66;;;10.42;68.21
37298;BME280;30517;51.932;4.278;2023-02-03T04:43:21;102521.84;;;10.47;68.29
37298;BME280;30517;51.932;4.278;2023-02-03T04:46:02;102551.31;;;10.64;67.85
37298;BME280;30517;51.932;4.278;2023-02-03T04:48:43;102560.13;;;10.65;68.30
37298;BME280;30517;51.932;4.278;2023-02-03T04:51:24;102556.63;;;10.66;67.79
37298;BME280;30517;51.932;4.278;2023-02-03T04:54:05;102549.38;;;10.58;68.15
37298;BME280;30517;51.932;4.278;2023-02-03T04:56:45;102538.56;;;10.46;67.94
37298;BME280;30517;51.932;4.278;2023-02-03T04:59:26;102551.06;;;10.53;68.33
37298;BME280;30517;51.932;4.278;2023-02-03T05:02:07;102573.31;;;10.65;68.29
37298;BME280;30517;51.932;4.278;2023-02-03T05:04:48;102570.69;;;10.65;68.20
37298;BME280;30517;51.932;4.278;2023-02-03T05:07:29;102551.88;;;10.51;68.14
37298;BME280;30517;51.932;4.278;2023-02-03T05:10:10;102521.75;;;10.43;68.13
37298;BME280;30517;51.932;4.278;2023-02-03T05:12:51;102564.50;;;10.64;68.10
37298;BME280;30517;51.932;4.278;2023-02-03T05:15:32;102560.78;;;10.56;68.55
37298;BME280;30517;51.932;4.278;2023-02-03T05:18:12;102524.41;;;10.43;68.25
37298;BME280;30517;51.932;4.278;2023-02-03T05:20:53;102556.53;;;10.62;68.16
37298;BME280;30517;51.932;4.278;2023-02-03T05:23:34;102568.50;;;10.48;68.71
37298;BME280;30517;51.932;4.278;2023-02-03T05:26:15;102575.09;;;10.01;70.05
37298;BME280;30517;51.932;4.278;2023-02-03T05:28:56;102513.44;;;9.62;70.11
37298;BME280;30517;51.932;4.278;2023-02-03T05:31:40;102498.00;;;9.76;69.69
37298;BME280;30517;51.932;4.278;2023-02-03T05:34:21;102569.53;;;9.90;70.39
37298;BME280;30517;51.932;4.278;2023-02-03T05:37:01;102529.44;;;10.02;70.14
37298;BME280;30517;51.932;4.278;2023-02-03T05:39:43;102545.66;;;10.50;68.61
37298;BME280;30517;51.932;4.278;2023-02-03T05:42:23;102553.22;;;10.70;67.81
37298;BME280;30517;51.932;4.278;2023-02-03T05:45:04;102519.66;;;10.66;67.04
37298;BME280;30517;51.932;4.278;2023-02-03T05:47:45;102553.56;;;10.85;67.25
37298;BME280;30517;51.932;4.278;2023-02-03T05:50:26;102491.19;;;10.52;67.17
37298;BME280;30517;51.932;4.278;2023-02-03T05:53:09;102557.13;;;10.87;66.94
37298;BME280;30517;51.932;4.278;2023-02-03T05:55:50;102573.94;;;10.91;66.76
37298;BME280;30517;51.932;4.278;2023-02-03T05:58:31;102558.91;;;10.88;67.03
37298;BME280;30517;51.932;4.278;2023-02-03T06:01:12;102566.81;;;10.87;67.31
37298;BME280;30517;51.932;4.278;2023-02-03T06:03:53;102565.84;;;10.83;66.96
37298;BME280;30517;51.932;4.278;2023-02-03T06:06:34;102503.25;;;10.41;67.06
37298;BME280;30517;51.932;4.278;2023-02-03T06:09:14;102575.59;;;10.85;67.16
37298;BME280;30517;51.932;4.278;2023-02-03T06:11:55;102590.44;;;10.82;67.18
37298;BME280;30517;51.932;4.278;2023-02-03T06:14:36;102590.44;;;10.82;67.75
37298;BME280;30517;51.932;4.278;2023-02-03T06:17:17;102559.50;;;10.75;67.20
37298;BME280;30517;51.932;4.278;2023-02-03T06:19:57;102549.78;;;10.74;67.48
37298;BME280;30517;51.932;4.278;2023-02-03T06:22:38;102523.81;;;10.54;67.38
37298;BME280;30517;51.932;4.278;2023-02-03T06:25:19;102563.97;;;10.79;67.44
37298;BME280;30517;51.932;4.278;2023-02-03T06:28:02;102541.84;;;10.72;67.42
37298;BME280;30517;51.932;4.278;2023-02-03T06:30:43;102544.34;;;10.68;67.56
37298;BME280;30517;51.932;4.278;2023-02-03T06:33:24;102565.69;;;10.77;67.78
37298;BME280;30517;51.932;4.278;2023-02-03T06:36:05;102562.16;;;10.76;67.71
37298;BME280;30517;51.932;4.278;2023-02-03T06:38:45;102571.84;;;10.76;67.95
37298;BME280;30517;51.932;4.278;2023-02-03T06:41:26;102576.22;;;10.75;67.55
37298;BME280;30517;51.932;4.278;2023-02-03T06:44:09;102562.75;;;10.65;67.64
37298;BME280;30517;51.932;4.278;2023-02-03T06:46:51;102544.03;;;10.55;67.39
37298;BME280;30517;51.932;4.278;2023-02-03T06:49:32;102592.91;;;10.74;67.56
37298;BME280;30517;51.932;4.278;2023-02-03T06:52:13;102573.53;;;10.74;67.62
37298;BME280;30517;51.932;4.278;2023-02-03T06:54:54;102570.81;;;10.71;67.43
37298;BME280;30517;51.932;4.278;2023-02-03T06:57:42;102589.34;;;10.72;67.48
37298;BME280;30517;51.932;4.278;2023-02-03T07:00:23;102594.50;;;10.68;67.69
37298;BME280;30517;51.932;4.278;2023-02-03T07:03:04;102618.41;;;10.74;67.68
37298;BME280;30517;51.932;4.278;2023-02-03T07:05:44;102612.25;;;10.73;68.08
37298;BME280;30517;51.932;4.278;2023-02-03T07:08:25;102605.81;;;10.63;67.50
37298;BME280;30517;51.932;4.278;2023-02-03T07:11:06;102594.25;;;10.58;67.55
37298;BME280;30517;51.932;4.278;2023-02-03T07:13:50;102623.66;;;10.72;67.73
37298;BME280;30517;51.932;4.278;2023-02-03T07:16:30;102617.47;;;10.72;67.67
37298;BME280;30517;51.932;4.278;2023-02-03T07:19:13;102633.22;;;10.67;67.45
37298;BME280;30517;51.932;4.278;2023-02-03T07:21:54;102631.59;;;10.72;67.66
37298;BME280;30517;51.932;4.278;2023-02-03T07:24:34;102625.34;;;10.70;67.60
37298;BME280;30517;51.932;4.278;2023-02-03T07:27:15;102628.94;;;10.72;67.95
37298;BME280;30517;51.932;4.278;2023-02-03T07:29:56;102628.94;;;10.72;67.72
37298;BME280;30517;51.932;4.278;2023-02-03T07:32:37;102593.28;;;10.53;67.95
37298;BME280;30517;51.932;4.278;2023-02-03T07:35:18;102609.22;;;10.26;69.08
37298;BME280;30517;51.932;4.278;2023-02-03T07:37:59;102631.63;;;10.42;69.18
37298;BME280;30517;51.932;4.278;2023-02-03T07:40:39;102551.25;;;9.96;69.23
37298;BME280;30517;51.932;4.278;2023-02-03T07:43:21;102641.50;;;10.48;69.03
37298;BME280;30517;51.932;4.278;2023-02-03T07:46:02;102632.75;;;10.50;68.70
37298;BME280;30517;51.932;4.278;2023-02-03T07:48:43;102604.38;;;10.41;68.54
37298;BME280;30517;51.932;4.278;2023-02-03T07:51:24;102640.09;;;10.62;68.44
37298;BME280;30517;51.932;4.278;2023-02-03T07:54:05;102637.41;;;10.60;68.59
37298;BME280;30517;51.932;4.278;2023-02-03T07:56:46;102633.75;;;10.55;68.28
37298;BME280;30517;51.932;4.278;2023-02-03T07:59:26;102659.63;;;10.69;68.41
37298;BME280;30517;51.932;4.278;2023-02-03T08:02:09;102657.03;;;10.70;68.31
37298;BME280;30517;51.932;4.278;2023-02-03T08:04:50;102639.09;;;10.58;68.20
37298;BME280;30517;51.932;4.278;2023-02-03T08:07:31;102646.50;;;10.72;67.94
37298;BME280;30517;51.932;4.278;2023-02-03T08:10:13;102658.88;;;10.73;68.29
37298;BME280;30517;51.932;4.278;2023-02-03T08:12:54;102639.22;;;10.61;67.52
37298;BME280;30517;51.932;4.278;2023-02-03T08:15:35;102691.47;;;10.75;68.09
37298;BME280;30517;51.932;4.278;2023-02-03T08:18:16;102690.53;;;10.73;68.31
37298;BME280;30517;51.932;4.278;2023-02-03T08:20:57;102675.59;;;10.73;67.60
37298;BME280;30517;51.932;4.278;2023-02-03T08:23:38;102671.19;;;10.74;67.93
37298;BME280;30517;51.932;4.278;2023-02-03T08:26:19;102690.53;;;10.73;68.03
37298;BME280;30517;51.932;4.278;2023-02-03T08:28:59;102697.59;;;10.74;68.01
37298;BME280;30517;51.932;4.278;2023-02-03T08:31:41;102699.34;;;10.73;67.74
37298;BME280;30517;51.932;4.278;2023-02-03T08:34:22;102690.31;;;10.65;67.69
37298;BME280;30517;51.932;4.278;2023-02-03T08:37:04;102692.16;;;10.68;68.30
37298;BME280;30517;51.932;4.278;2023-02-03T08:39:48;102676.25;;;10.65;68.20
37298;BME280;30517;51.932;4.278;2023-02-03T08:42:29;102667.66;;;10.73;68.41
37298;BME280;30517;51.932;4.278;2023-02-03T08:45:10;102671.06;;;10.69;68.20
37298;BME280;30517;51.932;4.278;2023-02-03T08:47:52;102680.66;;;10.66;68.41
37298;BME280;30517;51.932;4.278;2023-02-03T08:50:33;102669.34;;;10.70;68.01
37298;BME280;30517;51.932;4.278;2023-02-03T08:53:14;102700.28;;;10.75;68.00
37298;BME280;30517;51.932;4.278;2023-02-03T08:55:55;102675.97;;;10.55;68.15
37298;BME280;30517;51.932;4.278;2023-02-03T08:58:36;102699.41;;;10.75;68.17
37298;BME280;30517;51.932;4.278;2023-02-03T09:01:18;102661.25;;;10.63;67.91
37298;BME280;30517;51.932;4.278;2023-02-03T09:03:59;102683.56;;;10.75;68.11
37298;BME280;30517;51.932;4.278;2023-02-03T09:06:41;102662.03;;;10.59;67.93
37298;BME280;30517;51.932;4.278;2023-02-03T09:09:22;102695.84;;;10.74;68.33
37298;BME280;30517;51.932;4.278;2023-02-03T09:12:06;102694.72;;;10.65;67.89
37298;BME280;30517;51.932;4.278;2023-02-03T09:14:47;102692.09;;;10.66;68.15
37298;BME280;30517;51.932;4.278;2023-02-03T09:17:28;102686.59;;;10.58;68.21
37298;BME280;30517;51.932;4.278;2023-02-03T09:20:09;102698.59;;;10.79;67.92
37298;BME280;30517;51.932;4.278;2023-02-03T09:22:52;102707.03;;;10.64;68.08
37298;BME280;30517;51.932;4.278;2023-02-03T09:25:34;102697.28;;;10.61;68.39
37298;BME280;30517;51.932;4.278;2023-02-03T09:28:14;102741.72;;;10.78;68.08
37298;BME280;30517;51.932;4.278;2023-02-03T09:31:04;102739.91;;;10.77;67.94
37298;BME280;30517;51.932;4.278;2023-02-03T09:33:45;102729.25;;;10.74;68.10
37298;BME280;30517;51.932;4.278;2023-02-03T09:36:26;102741.72;;;10.78;68.30
37298;BME280;30517;51.932;4.278;2023-02-03T09:39:07;102758.28;;;10.74;68.09
37298;BME280;30517;51.932;4.278;2023-02-03T09:47:38;102662.88;;;10.27;68.04
37298;BME280;30517;51.932;4.278;2023-02-03T09:50:23;102745.97;;;10.73;68.14
37298;BME280;30517;51.932;4.278;2023-02-03T09:53:11;102752.25;;;10.78;68.23
37298;BME280;30517;51.932;4.278;2023-02-03T09:55:57;102757.47;;;10.75;68.63
37298;BME280;30517;51.932;4.278;2023-02-03T09:58:39;102745.81;;;10.67;68.59
37298;BME280;30517;51.932;4.278;2023-02-03T10:01:21;102767.28;;;10.80;68.40
37298;BME280;30517;51.932;4.278;2023-02-03T10:04:17;102780.44;;;10.79;68.43
37298;BME280;30517;51.932;4.278;2023-02-03T10:10:21;102784.03;;;10.81;68.33
37298;BME280;30517;51.932;4.278;2023-02-03T10:13:28;102797.22;;;10.81;68.59
37298;BME280;30517;51.932;4.278;2023-02-03T10:19:26;102775.22;;;10.80;68.63
37298;BME280;30517;51.932;4.278;2023-02-03T10:22:14;102764.28;;;10.67;68.50
37298;BME280;30517;51.932;4.278;2023-02-03T10:25:34;102805.88;;;10.75;68.76
37298;BME280;30517;51.932;4.278;2023-02-03T10:28:19;102791.97;;;10.82;68.57
37298;BME280;30517;51.932;4.278;2023-02-03T10:31:03;102792.78;;;10.80;68.94
37298;BME280;30517;51.932;4.278;2023-02-03T10:33:53;102806.91;;;10.82;68.43
37298;BME280;30517;51.932;4.278;2023-02-03T10:39:47;102805.22;;;10.84;69.00
37298;BME280;30517;51.932;4.278;2023-02-03T10:42:29;102803.53;;;10.86;68.76
37298;BME280;30517;51.932;4.278;2023-02-03T10:45:36;102815.88;;;10.87;68.58
37298;BME280;30517;51.932;4.278;2023-02-03T10:48:17;102830.84;;;10.88;68.73
37298;BME280;30517;51.932;4.278;2023-02-03T10:51:00;102802.41;;;10.78;68.53
37298;BME280;30517;51.932;4.278;2023-02-03T10:53:42;102827.38;;;10.89;68.99
37298;BME280;30517;51.932;4.278;2023-02-03T10:56:28;102785.38;;;10.67;68.94
37298;BME280;30517;51.932;4.278;2023-02-03T10:59:26;102849.31;;;10.88;69.09
37298;BME280;30517;51.932;4.278;2023-02-03T11:02:21;102832.66;;;10.89;68.98
37298;BME280;30517;51.932;4.278;2023-02-03T11:05:21;102840.59;;;10.91;68.75
37298;BME280;30517;51.932;4.278;2023-02-03T11:08:13;102834.25;;;10.84;69.03
37298;BME280;30517;51.932;4.278;2023-02-03T11:11:01;102842.50;;;10.95;69.13
37298;BME280;30517;51.932;4.278;2023-02-03T11:13:43;102844.19;;;10.93;68.82
37298;BME280;30517;51.932;4.278;2023-02-03T11:16:23;102827.53;;;10.95;68.99
37298;BME280;30517;51.932;4.278;2023-02-03T11:19:27;102828.41;;;10.96;68.85
37298;BME280;30517;51.932;4.278;2023-02-03T11:22:07;102832.88;;;10.98;69.22
37298;BME280;30517;51.932;4.278;2023-02-03T11:24:48;102834.69;;;10.99;69.24
37298;BME280;30517;51.932;4.278;2023-02-03T11:27:30;102804.44;;;10.88;68.95
37298;BME280;30517;51.932;4.278;2023-02-03T11:30:22;102816.16;;;10.98;69.42
37298;BME280;30517;51.932;4.278;2023-02-03T11:33:16;102797.44;;;10.89;68.71
37298;BME280;30517;51.932;4.278;2023-02-03T11:35:58;102831.28;;;11.03;69.17
37298;BME280;30517;51.932;4.278;2023-02-03T11:38:41;102828.47;;;10.97;69.18
37298;BME280;30517;51.932;4.278;2023-02-03T11:41:23;102808.88;;;10.89;69.24
37298;BME280;30517;51.932;4.278;2023-02-03T11:44:25;102830.44;;;11.04;68.92
37298;BME280;30517;51.932;4.278;2023-02-03T11:47:09;102826.84;;;11.02;69.18
37298;BME280;30517;51.932;4.278;2023-02-03T11:50:28;102824.31;;;11.05;69.55
37298;BME280;30517;51.932;4.278;2023-02-03T11:56:38;102825.25;;;11.09;68.91
37298;BME280;30517;51.932;4.278;2023-02-03T11:59:43;102817.31;;;11.07;69.72
37298;BME280;30517;51.932;4.278;2023-02-03T12:05:30;102832.44;;;11.13;69.39
37298;BME280;30517;51.932;4.278;2023-02-03T12:08:26;102825.41;;;11.14;69.06
37298;BME280;30517;51.932;4.278;2023-02-03T12:17:47;102834.50;;;10.93;70.27
37298;BME280;30517;51.932;4.278;2023-02-03T12:23:26;102827.97;;;11.12;69.36
37298;BME280;30517;51.932;4.278;2023-02-03T12:29:12;102816.88;;;11.24;68.90
37298;BME280;30517;51.932;4.278;2023-02-03T12:35:14;102819.75;;;11.00;69.81
37298;BME280;30517;51.932;4.278;2023-02-03T12:40:48;102846.38;;;11.07;69.35
37298;BME280;30517;51.932;4.278;2023-02-03T12:43:39;102829.91;;;11.18;69.69
37298;BME280;30517;51.932;4.278;2023-02-03T12:46:29;102842.41;;;11.23;69.45
37298;BME280;30517;51.932;4.278;2023-02-03T12:49:28;102860.16;;;11.29;69.26
37298;BME280;30517;51.932;4.278;2023-02-03T12:52:39;102838.25;;;11.33;68.81
37298;BME280;30517;51.932;4.278;2023-02-03T12:55:40;102834.66;;;11.31;68.98
37298;BME280;30517;51.932;4.278;2023-02-03T12:58:26;102851.72;;;11.44;68.84
37298;BME280;30517;51.932;4.278;2023-02-03T13:01:19;102836.69;;;11.41;68.51
37298;BME280;30517;51.932;4.278;2023-02-03T13:07:15;102837.59;;;11.42;68.76
37298;BME280;30517;51.932;4.278;2023-02-03T13:10:05;102830.56;;;11.42;68.76
37298;BME280;30517;51.932;4.278;2023-02-03T13:12:55;102840.50;;;11.52;68.70
37298;BME280;30517;51.932;4.278;2023-02-03T13:15:41;102843.16;;;11.52;68.75
37298;BME280;30517;51.932;4.278;2023-02-03T13:18:37;102795.81;;;11.27;68.76
37298;BME280;30517;51.932;4.278;2023-02-03T13:21:19;102777.03;;;11.16;68.63
37298;BME280;30517;51.932;4.278;2023-02-03T13:24:02;102846.78;;;11.56;68.00
37298;BME280;30517;51.932;4.278;2023-02-03T13:26:54;102854.66;;;11.55;68.22
37298;BME280;30517;51.932;4.278;2023-02-03T13:41:50;102876.75;;;11.57;69.09
37298;BME280;30517;51.932;4.278;2023-02-03T13:44:33;102872.41;;;11.59;69.24
37298;BME280;30517;51.932;4.278;2023-02-03T13:47:20;102869.78;;;11.60;69.02
37298;BME280;30517;51.932;4.278;2023-02-03T13:50:06;102861.84;;;11.60;68.63
37298;BME280;30517;51.932;4.278;2023-02-03T13:53:04;102845.78;;;11.52;69.19
37298;BME280;30517;51.932;4.278;2023-02-03T13:55:54;102860.88;;;11.57;68.77
37298;BME280;30517;51.932;4.278;2023-02-03T13:58:38;102867.19;;;11.62;68.50
37298;BME280;30517;51.932;4.278;2023-02-03T14:07:27;102874.31;;;11.64;69.47
37298;BME280;30517;51.932;4.278;2023-02-03T14:12:55;102871.66;;;11.64;69.01
37298;BME280;30517;51.932;4.278;2023-02-03T14:15:38;102890.25;;;11.67;69.11
37298;BME280;30517;51.932;4.278;2023-02-03T14:18:33;102886.72;;;11.68;69.07
37298;BME280;30517;51.932;4.278;2023-02-03T14:21:23;102892.00;;;11.68;68.96
37298;BME280;30517;51.932;4.278;2023-02-03T14:24:09;102883.03;;;11.62;68.83
37298;BME280;30517;51.932;4.278;2023-02-03T14:26:53;102896.53;;;11.72;69.06
37298;BME280;30517;51.932;4.278;2023-02-03T14:29:35;102870.63;;;11.59;68.84
37298;BME280;30517;51.932;4.278;2023-02-03T14:32:16;102885.75;;;11.65;69.48
37298;BME280;30517;51.932;4.278;2023-02-03T14:34:57;102901.00;;;11.75;68.89
37298;BME280;30517;51.932;4.278;2023-02-03T14:37:38;102892.97;;;11.70;69.13
37298;BME280;30517;51.932;4.278;2023-02-03T14:40:46;102916.00;;;11.76;68.64
37298;BME280;30517;51.932;4.278;2023-02-03T14:43:40;102902.72;;;11.73;68.66
37298;BME280;30517;51.932;4.278;2023-02-03T14:46:56;102895.53;;;11.69;68.90
37298;BME280;30517;51.932;4.278;2023-02-03T14:52:56;102911.75;;;11.81;68.88
37298;BME280;30517;51.932;4.278;2023-02-03T14:58:49;102917.03;;;11.81;68.59
37298;BME280;30517;51.932;4.278;2023-02-03T15:06:56;102919.84;;;11.86;68.72
37298;BME280;30517;51.932;4.278;2023-02-03T15:09:41;102911.66;;;11.78;68.80
37298;BME280;30517;51.932;4.278;2023-02-03T15:12:26;102923.38;;;11.86;68.69
37298;BME280;30517;51.932;4.278;2023-02-03T15:15:35;102919.75;;;11.84;69.20
37298;BME280;30517;51.932;4.278;2023-02-03T15:18:27;102890.38;;;11.73;69.05
37298;BME280;30517;51.932;4.278;2023-02-03T15:21:15;102921.44;;;11.82;69.10
37298;BME280;30517;51.932;4.278;2023-02-03T15:23:56;102927.84;;;11.90;69.10
37298;BME280;30517;51.932;4.278;2023-02-03T15:26:44;102913.50;;;11.81;69.05
37298;BME280;30517;51.932;4.278;2023-02-03T15:29:28;102914.38;;;11.81;68.62
37298;BME280;30517;51.932;4.278;2023-02-03T15:32:17;102910.66;;;11.73;69.02
37298;BME280;30517;51.932;4.278;2023-02-03T15:35:03;102937.53;;;11.88;68.88
37298;BME280;30517;51.932;4.278;2023-02-03T15:37:55;102958.78;;;11.93;68.87
37298;BME280;30517;51.932;4.278;2023-02-03T15:40:47;102955.31;;;11.94;68.91